sensor_id;sensor_type;location;lat;lon;timestamp;pressure;altitude;pressure_sealevel;temperature;humidity
13695;BME280;6919;52.344;14.518;2022-11-20T00:01:33;100265.91;;;1.10;100.00
13695;BME280;6919;52.344;14.518;2022-11-20T00:04:02;100256.53;;;1.31;100.00
13695;BME280;6919;52.344;14.518;2022-11-20T00:06:31;100259.38;;;1.28;100.00
13695;BME280;6919;52.344;14.518;2022-11-20T00:09:00;100264.00;;;1.25;100.00
13695;BME280;6919;52.344;14.518;2022-11-20T00:11:31;100261.06;;;1.29;100.00
13695;BME280;6919;52.344;14.518;2022-11-20T00:14:01;100262.84;;;1.29;100.00
13695;BME280;6919;52.344;14.518;2022-11-20T00:16:32;100259.91;;;1.33;100.00
13695;BME280;6919;52.344;14.518;2022-11-20T00:19:01;100263.50;;;1.20;100.00
13695;BME280;6919;52.344;14.518;2022-11-20T00:21:31;100262.22;;;1.13;100.00
13695;BME280;6919;52.344;14.518;2022-11-20T00:23:59;100258.84;;;1.23;100.00
13695;BME280;6919;52.344;14.518;2022-11-20T00:26:28;100256.09;;;1.25;100.00
13695;BME280;6919;52.344;14.518;2022-11-20T00:28:59;100260.97;;;1.18;100.00
13695;BME280;6919;52.344;14.518;2022-11-20T00:31:28;100255.16;;;1.26;100.00
13695;BME280;6919;52.344;14.518;2022-11-20T00:33:57;100265.41;;;1.43;100.00
13695;BME280;6919;52.344;14.518;2022-11-20T00:36:27;100257.03;;;1.11;100.00
13695;BME280;6919;52.344;14.518;2022-11-20T00:38:59;100260.31;;;1.27;100.00
13695;BME280;6919;52.344;14.518;2022-11-20T00:41:29;100261.16;;;1.28;100.00
13695;BME280;6919;52.344;14.518;2022-11-20T00:43:58;100259.19;;;1.31;100.00
13695;BME280;6919;52.344;14.518;2022-11-20T00:46:27;100260.44;;;1.26;100.00
13695;BME280;6919;52.344;14.518;2022-11-20T00:48:56;100261.16;;;1.28;100.00
13695;BME280;6919;52.344;14.518;2022-11-20T00:51:26;100267.50;;;1.13;100.00
13695;BME280;6919;52.344;14.518;2022-11-20T00:53:57;100270.06;;;1.27;100.00
13695;BME280;6919;52.344;14.518;2022-11-20T00:56:27;100276.91;;;1.17;100.00
13695;BME280;6919;52.344;14.518;2022-11-20T00:58:55;100274.78;;;1.34;100.00
13695;BME280;6919;52.344;14.518;2022-11-20T01:01:25;100274.94;;;1.33;100.00
13695;BME280;6919;52.344;14.518;2022-11-20T01:03:58;100272.81;;;1.38;100.00
13695;BME280;6919;52.344;14.518;2022-11-20T01:06:29;100269.72;;;1.19;100.00
13695;BME280;6919;52.344;14.518;2022-11-20T01:09:02;100271.63;;;1.17;100.00
13695;BME280;6919;52.344;14.518;2022-11-20T01:11:33;100273.09;;;1.21;100.00
13695;BME280;6919;52.344;14.518;2022-11-20T01:14:06;100269.47;;;1.09;100.00
13695;BME280;6919;52.344;14.518;2022-11-20T01:16:38;100268.03;;;1.18;100.00
13695;BME280;6919;52.344;14.518;2022-11-20T01:19:10;100263.38;;;1.21;100.00
13695;BME280;6919;52.344;14.518;2022-11-20T01:21:46;100266.44;;;1.28;100.00
13695;BME280;6919;52.344;14.518;2022-11-20T01:24:19;100258.53;;;1.28;100.00
13695;BME280;6919;52.344;14.518;2022-11-20T01:26:50;100258.00;;;1.10;100.00
13695;BME280;6919;52.344;14.518;2022-11-20T01:29:22;100262.84;;;1.16;100.00
13695;BME280;6919;52.344;14.518;2022-11-20T01:31:51;100256.53;;;1.31;100.00
13695;BME280;6919;52.344;14.518;2022-11-20T01:34:22;100259.38;;;1.28;100.00
13695;BME280;6919;52.344;14.518;2022-11-20T01:36:52;100261.16;;;1.28;100.00
13695;BME280;6919;52.344;14.518;2022-11-20T01:39:24;100261.59;;;1.34;100.00
13695;BME280;6919;52.344;14.518;2022-11-20T01:41:54;100260.97;;;1.18;100.00
13695;BME280;6919;52.344;14.518;2022-11-20T01:44:51;100258.31;;;1.18;100.00
13695;BME280;6919;52.344;14.518;2022-11-20T01:47:31;100254.31;;;1.25;100.00
13695;BME280;6919;52.344;14.518;2022-11-20T01:50:09;100250.06;;;1.10;100.00
13695;BME280;6919;52.344;14.518;2022-11-20T01:52:45;100252.19;;;1.18;100.00
13695;BME280;6919;52.344;14.518;2022-11-20T01:55:23;100247.22;;;1.13;100.00
13695;BME280;6919;52.344;14.518;2022-11-20T01:57:53;100246.47;;;1.11;100.00
13695;BME280;6919;52.344;14.518;2022-11-20T02:00:22;100244.34;;;1.16;100.00
13695;BME280;6919;52.344;14.518;2022-11-20T02:02:57;100248.47;;;1.20;100.00
13695;BME280;6919;52.344;14.518;2022-11-20T02:05:33;100252.06;;;1.19;100.00
13695;BME280;6919;52.344;14.518;2022-11-20T02:08:03;100248.06;;;1.14;100.00
13695;BME280;6919;52.344;14.518;2022-11-20T02:10:34;100252.91;;;1.07;100.00
13695;BME280;6919;52.344;14.518;2022-11-20T02:13:03;100258.19;;;1.07;100.00
13695;BME280;6919;52.344;14.518;2022-11-20T02:15:50;100249.88;;;1.13;100.00
13695;BME280;6919;52.344;14.518;2022-11-20T02:18:20;100251.56;;;1.14;100.00
13695;BME280;6919;52.344;14.518;2022-11-20T02:20:54;100240.97;;;1.02;100.00
13695;BME280;6919;52.344;14.518;2022-11-20T02:23:32;100244.69;;;1.12;100.00
13695;BME280;6919;52.344;14.518;2022-11-20T02:26:07;100238.56;;;1.11;100.00
13695;BME280;6919;52.344;14.518;2022-11-20T02:28:37;100242.88;;;1.25;100.00
13695;BME280;6919;52.344;14.518;2022-11-20T02:31:05;100238.16;;;1.17;100.00
13695;BME280;6919;52.344;14.518;2022-11-20T02:33:34;100244.72;;;1.24;100.00
13695;BME280;6919;52.344;14.518;2022-11-20T02:36:03;100242.78;;;1.14;100.00
13695;BME280;6919;52.344;14.518;2022-11-20T02:38:32;100243.19;;;1.20;100.00
13695;BME280;6919;52.344;14.518;2022-11-20T02:41:01;100242.47;;;1.31;100.00
13695;BME280;6919;52.344;14.518;2022-11-20T02:43:30;100237.91;;;1.20;100.00
13695;BME280;6919;52.344;14.518;2022-11-20T02:45:58;100229.78;;;1.23;100.00
13695;BME280;6919;52.344;14.518;2022-11-20T02:48:26;100228.19;;;1.08;100.00
13695;BME280;6919;52.344;14.518;2022-11-20T02:51:00;100226.31;;;1.10;100.00
13695;BME280;6919;52.344;14.518;2022-11-20T02:53:28;100236.34;;;1.18;100.00
13695;BME280;6919;52.344;14.518;2022-11-20T02:55:56;100227.34;;;1.08;100.00
13695;BME280;6919;52.344;14.518;2022-11-20T02:58:26;100235.16;;;0.97;100.00
13695;BME280;6919;52.344;14.518;2022-11-20T03:00:54;100231.78;;;0.95;100.00
13695;BME280;6919;52.344;14.518;2022-11-20T03:03:22;100219.66;;;1.05;100.00
13695;BME280;6919;52.344;14.518;2022-11-20T03:05:51;100224.38;;;0.87;100.00
13695;BME280;6919;52.344;14.518;2022-11-20T03:08:19;100220.06;;;0.99;100.00
13695;BME280;6919;52.344;14.518;2022-11-20T03:10:47;100212.53;;;0.80;100.00
13695;BME280;6919;52.344;14.518;2022-11-20T03:13:15;100212.63;;;0.79;100.00
13695;BME280;6919;52.344;14.518;2022-11-20T03:15:45;100209.25;;;0.77;100.00
13695;BME280;6919;52.344;14.518;2022-11-20T03:18:13;100211.78;;;0.66;100.00
13695;BME280;6919;52.344;14.518;2022-11-20T03:20:41;100205.75;;;0.64;100.00
13695;BME280;6919;52.344;14.518;2022-11-20T03:23:09;100211.06;;;0.89;100.00
13695;BME280;6919;52.344;14.518;2022-11-20T03:25:38;100210.88;;;0.92;100.00
13695;BME280;6919;52.344;14.518;2022-11-20T03:28:06;100211.50;;;0.95;100.00
13695;BME280;6919;52.344;14.518;2022-11-20T03:30:35;100200.09;;;0.82;100.00
13695;BME280;6919;52.344;14.518;2022-11-20T03:33:05;100193.75;;;0.85;100.00
13695;BME280;6919;52.344;14.518;2022-11-20T03:35:33;100198.59;;;0.78;100.00
13695;BME280;6919;52.344;14.518;2022-11-20T03:38:01;100200.41;;;0.90;100.00
13695;BME280;6919;52.344;14.518;2022-11-20T03:40:29;100188.47;;;0.85;100.00
13695;BME280;6919;52.344;14.518;2022-11-20T03:42:57;100195.63;;;0.83;100.00
13695;BME280;6919;52.344;14.518;2022-11-20T03:45:25;100189.97;;;0.89;100.00
13695;BME280;6919;52.344;14.518;2022-11-20T03:47:54;100194.91;;;0.81;100.00
13695;BME280;6919;52.344;14.518;2022-11-20T03:50:23;100192.41;;;0.92;100.00
13695;BME280;6919;52.344;14.518;2022-11-20T03:52:52;100194.47;;;0.87;100.00
13695;BME280;6919;52.344;14.518;2022-11-20T03:55:20;100194.72;;;0.96;100.00
13695;BME280;6919;52.344;14.518;2022-11-20T03:57:48;100192.69;;;0.87;100.00
13695;BME280;6919;52.344;14.518;2022-11-20T04:00:17;100190.63;;;1.05;100.00
13695;BME280;6919;52.344;14.518;2022-11-20T04:02:45;100194.19;;;0.91;100.00
13695;BME280;6919;52.344;14.518;2022-11-20T04:05:13;100195.03;;;1.04;100.00
13695;BME280;6919;52.344;14.518;2022-11-20T04:07:43;100199.25;;;0.94;100.00
13695;BME280;6919;52.344;14.518;2022-11-20T04:10:11;100196.00;;;0.91;100.00
13695;BME280;6919;52.344;14.518;2022-11-20T04:12:39;100202.66;;;0.96;100.00
13695;BME280;6919;52.344;14.518;2022-11-20T04:15:09;100201.16;;;0.92;100.00
13695;BME280;6919;52.344;14.518;2022-11-20T04:17:37;100200.09;;;0.82;100.00
13695;BME280;6919;52.344;14.518;2022-11-20T04:20:07;100202.00;;;0.93;100.00
13695;BME280;6919;52.344;14.518;2022-11-20T04:22:35;100201.22;;;0.66;100.00
13695;BME280;6919;52.344;14.518;2022-11-20T04:25:06;100194.47;;;0.74;100.00
13695;BME280;6919;52.344;14.518;2022-11-20T04:27:34;100193.41;;;0.64;100.00
13695;BME280;6919;52.344;14.518;2022-11-20T04:30:02;100193.53;;;0.75;100.00
13695;BME280;6919;52.344;14.518;2022-11-20T04:32:31;100190.34;;;0.83;100.00
13695;BME280;6919;52.344;14.518;2022-11-20T04:34:59;100193.84;;;0.71;100.00
13695;BME280;6919;52.344;14.518;2022-11-20T04:37:27;100188.69;;;0.82;100.00
13695;BME280;6919;52.344;14.518;2022-11-20T04:39:55;100183.81;;;0.76;100.00
13695;BME280;6919;52.344;14.518;2022-11-20T04:42:25;100183.31;;;0.96;100.00
13695;BME280;6919;52.344;14.518;2022-11-20T04:44:57;100181.72;;;0.81;100.00
13695;BME280;6919;52.344;14.518;2022-11-20T04:47:25;100171.56;;;0.75;100.00
13695;BME280;6919;52.344;14.518;2022-11-20T04:49:53;100170.09;;;0.83;100.00
13695;BME280;6919;52.344;14.518;2022-11-20T04:52:22;100173.88;;;0.67;100.00
13695;BME280;6919;52.344;14.518;2022-11-20T04:54:50;100170.50;;;0.77;100.00
13695;BME280;6919;52.344;14.518;2022-11-20T04:57:19;100178.75;;;0.73;100.00
13695;BME280;6919;52.344;14.518;2022-11-20T04:59:49;100180.75;;;0.82;100.00
13695;BME280;6919;52.344;14.518;2022-11-20T05:02:18;100172.53;;;0.74;100.00
13695;BME280;6919;52.344;14.518;2022-11-20T05:04:46;100168.31;;;0.71;100.00
13695;BME280;6919;52.344;14.518;2022-11-20T05:07:14;100170.28;;;0.68;100.00
13695;BME280;6919;52.344;14.518;2022-11-20T05:09:43;100166.28;;;0.75;100.00
13695;BME280;6919;52.344;14.518;2022-11-20T05:12:11;100167.03;;;0.64;100.00
13695;BME280;6919;52.344;14.518;2022-11-20T05:14:40;100162.44;;;0.54;100.00
13695;BME280;6919;52.344;14.518;2022-11-20T05:17:11;100168.72;;;0.65;100.00
13695;BME280;6919;52.344;14.518;2022-11-20T05:19:40;100171.16;;;0.81;100.00
13695;BME280;6919;52.344;14.518;2022-11-20T05:22:08;100166.28;;;0.75;100.00
13695;BME280;6919;52.344;14.518;2022-11-20T05:24:36;100175.16;;;0.74;100.00
13695;BME280;6919;52.344;14.518;2022-11-20T05:27:04;100181.53;;;0.96;100.00
13695;BME280;6919;52.344;14.518;2022-11-20T05:29:32;100173.47;;;0.73;100.00
13695;BME280;6919;52.344;14.518;2022-11-20T05:32:01;100178.25;;;0.93;100.00
13695;BME280;6919;52.344;14.518;2022-11-20T05:34:31;100177.72;;;0.88;100.00
13695;BME280;6919;52.344;14.518;2022-11-20T05:36:59;100180.13;;;0.78;100.00
13695;BME280;6919;52.344;14.518;2022-11-20T05:39:27;100178.63;;;0.74;100.00
13695;BME280;6919;52.344;14.518;2022-11-20T05:41:55;100175.09;;;0.88;100.00
13695;BME280;6919;52.344;14.518;2022-11-20T05:44:37;100175.75;;;0.65;100.00
13695;BME280;6919;52.344;14.518;2022-11-20T05:47:06;100171.44;;;0.64;100.00
13695;BME280;6919;52.344;14.518;2022-11-20T05:49:35;100171.47;;;0.89;100.00
13695;BME280;6919;52.344;14.518;2022-11-20T05:52:04;100167.56;;;0.69;100.00
13695;BME280;6919;52.344;14.518;2022-11-20T05:54:32;100166.09;;;0.78;100.00
13695;BME280;6919;52.344;14.518;2022-11-20T05:57:01;100170.41;;;0.91;100.00
13695;BME280;6919;52.344;14.518;2022-11-20T05:59:29;100163.97;;;0.83;100.00
13695;BME280;6919;52.344;14.518;2022-11-20T06:01:57;100170.31;;;0.80;100.00
13695;BME280;6919;52.344;14.518;2022-11-20T06:04:25;100158.69;;;0.70;100.00
13695;BME280;6919;52.344;14.518;2022-11-20T06:06:55;100165.66;;;0.71;100.00
13695;BME280;6919;52.344;14.518;2022-11-20T06:09:23;100163.78;;;0.86;100.00
13695;BME280;6919;52.344;14.518;2022-11-20T06:11:51;100162.28;;;0.82;100.00
13695;BME280;6919;52.344;14.518;2022-11-20T06:14:20;100168.41;;;0.70;100.00
13695;BME280;6919;52.344;14.518;2022-11-20T06:16:48;100168.06;;;0.74;100.00
13695;BME280;6919;52.344;14.518;2022-11-20T06:19:16;100162.38;;;0.68;100.00
13695;BME280;6919;52.344;14.518;2022-11-20T06:21:47;100167.53;;;0.57;100.00
13695;BME280;6919;52.344;14.518;2022-11-20T06:24:17;100164.38;;;0.64;100.00
13695;BME280;6919;52.344;14.518;2022-11-20T06:26:46;100165.97;;;0.67;100.00
13695;BME280;6919;52.344;14.518;2022-11-20T06:29:14;100161.09;;;0.61;100.00
13695;BME280;6919;52.344;14.518;2022-11-20T06:31:42;100164.63;;;0.74;100.00
13695;BME280;6919;52.344;14.518;2022-11-20T06:34:11;100169.78;;;0.75;100.00
13695;BME280;6919;52.344;14.518;2022-11-20T06:36:40;100167.16;;;0.75;100.00
13695;BME280;6919;52.344;14.518;2022-11-20T06:39:08;100159.94;;;0.65;100.00
13695;BME280;6919;52.344;14.518;2022-11-20T06:41:37;100148.88;;;0.60;100.00
13695;BME280;6919;52.344;14.518;2022-11-20T06:44:06;100155.13;;;0.71;100.00
13695;BME280;6919;52.344;14.518;2022-11-20T06:46:34;100152.75;;;0.54;100.00
13695;BME280;6919;52.344;14.518;2022-11-20T06:49:02;100151.41;;;0.61;100.00
13695;BME280;6919;52.344;14.518;2022-11-20T06:51:31;100150.25;;;0.65;100.00
13695;BME280;6919;52.344;14.518;2022-11-20T06:54:00;100150.84;;;0.56;100.00
13695;BME280;6919;52.344;14.518;2022-11-20T06:56:28;100148.84;;;0.47;100.00
13695;BME280;6919;52.344;14.518;2022-11-20T06:58:57;100155.59;;;0.51;100.00
13695;BME280;6919;52.344;14.518;2022-11-20T07:01:26;100151.56;;;0.46;100.00
13695;BME280;6919;52.344;14.518;2022-11-20T07:03:54;100152.31;;;0.60;100.00
13695;BME280;6919;52.344;14.518;2022-11-20T07:06:22;100145.59;;;0.69;100.00
13695;BME280;6919;52.344;14.518;2022-11-20T07:08:51;100147.91;;;0.61;100.00
13695;BME280;6919;52.344;14.518;2022-11-20T07:11:19;100146.50;;;0.43;100.00
13695;BME280;6919;52.344;14.518;2022-11-20T07:13:48;100143.66;;;0.46;100.00
13695;BME280;6919;52.344;14.518;2022-11-20T07:16:18;100144.53;;;0.46;100.00
13695;BME280;6919;52.344;14.518;2022-11-20T07:18:46;100145.28;;;0.61;100.00
13695;BME280;6919;52.344;14.518;2022-11-20T07:21:17;100146.03;;;0.63;100.00
13695;BME280;6919;52.344;14.518;2022-11-20T07:23:46;100145.28;;;0.73;100.00
13695;BME280;6919;52.344;14.518;2022-11-20T07:26:14;100140.78;;;0.75;100.00
13695;BME280;6919;52.344;14.518;2022-11-20T07:28:44;100144.34;;;0.74;100.00
13695;BME280;6919;52.344;14.518;2022-11-20T07:31:13;100138.38;;;0.46;100.00
13695;BME280;6919;52.344;14.518;2022-11-20T07:33:47;100141.63;;;0.37;100.00
13695;BME280;6919;52.344;14.518;2022-11-20T07:36:15;100144.09;;;0.52;100.00
13695;BME280;6919;52.344;14.518;2022-11-20T07:38:44;100147.78;;;0.50;100.00
13695;BME280;6919;52.344;14.518;2022-11-20T07:41:12;100147.34;;;0.43;100.00
13695;BME280;6919;52.344;14.518;2022-11-20T07:43:40;100140.53;;;0.53;100.00
13695;BME280;6919;52.344;14.518;2022-11-20T07:46:09;100145.47;;;0.58;100.00
13695;BME280;6919;52.344;14.518;2022-11-20T07:48:37;100140.53;;;0.53;100.00
13695;BME280;6919;52.344;14.518;2022-11-20T07:51:07;100134.63;;;0.62;100.00
13695;BME280;6919;52.344;14.518;2022-11-20T07:53:35;100137.69;;;0.69;100.00
13695;BME280;6919;52.344;14.518;2022-11-20T07:56:05;100138.44;;;0.71;100.00
13695;BME280;6919;52.344;14.518;2022-11-20T07:58:33;100132.09;;;0.61;100.00
13695;BME280;6919;52.344;14.518;2022-11-20T08:01:07;100130.59;;;0.57;100.00
13695;BME280;6919;52.344;14.518;2022-11-20T08:03:36;100130.81;;;0.54;100.00
13695;BME280;6919;52.344;14.518;2022-11-20T08:06:07;100127.66;;;0.61;100.00
13695;BME280;6919;52.344;14.518;2022-11-20T08:08:36;100132.09;;;0.61;100.00
13695;BME280;6919;52.344;14.518;2022-11-20T08:11:09;100124.56;;;0.55;100.00
13695;BME280;6919;52.344;14.518;2022-11-20T08:13:55;100127.09;;;0.56;100.00
13695;BME280;6919;52.344;14.518;2022-11-20T08:16:45;100124.72;;;0.66;100.00
13695;BME280;6919;52.344;14.518;2022-11-20T08:19:16;100133.44;;;0.54;100.00
13695;BME280;6919;52.344;14.518;2022-11-20T08:21:46;100119.63;;;0.50;100.00
13695;BME280;6919;52.344;14.518;2022-11-20T08:24:15;100120.22;;;0.41;100.00
13695;BME280;6919;52.344;14.518;2022-11-20T08:26:43;100116.44;;;0.45;100.00
13695;BME280;6919;52.344;14.518;2022-11-20T08:29:12;100124.47;;;0.69;100.00
13695;BME280;6919;52.344;14.518;2022-11-20T08:31:40;100122.88;;;0.54;100.00
13695;BME280;6919;52.344;14.518;2022-11-20T08:34:09;100127.88;;;0.71;100.00
13695;BME280;6919;52.344;14.518;2022-11-20T08:36:45;100124.47;;;0.69;100.00
13695;BME280;6919;52.344;14.518;2022-11-20T08:39:14;100117.50;;;0.43;100.00
13695;BME280;6919;52.344;14.518;2022-11-20T08:41:42;100128.38;;;0.63;100.00
13695;BME280;6919;52.344;14.518;2022-11-20T08:44:11;100127.53;;;0.50;100.00
13695;BME280;6919;52.344;14.518;2022-11-20T08:46:41;100119.72;;;0.49;100.00
13695;BME280;6919;52.344;14.518;2022-11-20T08:49:12;100123.66;;;0.68;100.00
13695;BME280;6919;52.344;14.518;2022-11-20T08:51:42;100121.94;;;0.55;100.00
13695;BME280;6919;52.344;14.518;2022-11-20T08:54:11;100122.38;;;0.61;100.00
13695;BME280;6919;52.344;14.518;2022-11-20T08:56:40;100116.03;;;0.51;100.00
13695;BME280;6919;52.344;14.518;2022-11-20T08:59:08;100124.28;;;0.59;100.00
13695;BME280;6919;52.344;14.518;2022-11-20T09:01:56;100115.19;;;0.63;100.00
13695;BME280;6919;52.344;14.518;2022-11-20T09:04:25;100113.63;;;0.61;100.00
13695;BME280;6919;52.344;14.518;2022-11-20T09:06:53;100122.41;;;0.74;100.00
13695;BME280;6919;52.344;14.518;2022-11-20T09:09:23;100119.63;;;0.50;100.00
13695;BME280;6919;52.344;14.518;2022-11-20T09:11:52;100120.06;;;0.57;100.00
13695;BME280;6919;52.344;14.518;2022-11-20T09:14:21;100113.72;;;0.59;100.00
13695;BME280;6919;52.344;14.518;2022-11-20T09:16:51;100115.66;;;0.70;100.00
13695;BME280;6919;52.344;14.518;2022-11-20T09:19:20;100122.63;;;0.96;100.00
13695;BME280;6919;52.344;14.518;2022-11-20T09:22:03;100121.56;;;0.98;100.00
13695;BME280;6919;52.344;14.518;2022-11-20T09:24:33;100117.97;;;1.12;100.00
13695;BME280;6919;52.344;14.518;2022-11-20T09:27:03;100117.13;;;0.99;100.00
13695;BME280;6919;52.344;14.518;2022-11-20T09:29:32;100111.66;;;0.89;100.00
13695;BME280;6919;52.344;14.518;2022-11-20T09:32:00;100109.63;;;0.93;100.00
13695;BME280;6919;52.344;14.518;2022-11-20T09:34:28;100115.88;;;0.92;100.00
13695;BME280;6919;52.344;14.518;2022-11-20T09:36:56;100112.47;;;1.02;100.00
13695;BME280;6919;52.344;14.518;2022-11-20T09:39:30;100108.91;;;1.03;100.00
13695;BME280;6919;52.344;14.518;2022-11-20T09:42:23;100102.44;;;1.07;100.00
13695;BME280;6919;52.344;14.518;2022-11-20T09:45:16;100098.44;;;1.02;100.00
13695;BME280;6919;52.344;14.518;2022-11-20T09:48:15;100094.31;;;1.23;100.00
13695;BME280;6919;52.344;14.518;2022-11-20T09:50:53;100095.72;;;0.91;100.00
13695;BME280;6919;52.344;14.518;2022-11-20T09:53:30;100087.69;;;0.92;100.00
13695;BME280;6919;52.344;14.518;2022-11-20T09:56:03;100091.78;;;0.96;100.00
13695;BME280;6919;52.344;14.518;2022-11-20T09:58:40;100090.75;;;0.99;100.00
13695;BME280;6919;52.344;14.518;2022-11-20T10:01:13;100087.22;;;1.11;100.00
13695;BME280;6919;52.344;14.518;2022-11-20T10:03:55;100096.72;;;1.01;100.00
13695;BME280;6919;52.344;14.518;2022-11-20T10:06:30;100094.09;;;1.01;100.00
13695;BME280;6919;52.344;14.518;2022-11-20T10:09:22;100088.41;;;1.07;100.00
13695;BME280;6919;52.344;14.518;2022-11-20T10:12:09;100088.28;;;1.21;100.00
13695;BME280;6919;52.344;14.518;2022-11-20T10:15:01;100096.00;;;1.24;100.00
13695;BME280;6919;52.344;14.518;2022-11-20T10:18:02;100086.59;;;1.20;100.00
13695;BME280;6919;52.344;14.518;2022-11-20T10:20:45;100097.91;;;0.97;100.00
13695;BME280;6919;52.344;14.518;2022-11-20T10:23:39;100093.16;;;1.02;100.00
13695;BME280;6919;52.344;14.518;2022-11-20T10:26:22;100094.31;;;1.10;100.00
13695;BME280;6919;52.344;14.518;2022-11-20T10:29:09;100087.78;;;1.16;100.00
13695;BME280;6919;52.344;14.518;2022-11-20T10:31:44;100088.50;;;1.05;100.00
13695;BME280;6919;52.344;14.518;2022-11-20T10:34:21;100083.06;;;1.32;100.00
13695;BME280;6919;52.344;14.518;2022-11-20T10:36:55;100087.91;;;1.50;100.00
13695;BME280;6919;52.344;14.518;2022-11-20T10:39:33;100079.34;;;1.47;100.00
13695;BME280;6919;52.344;14.518;2022-11-20T10:42:11;100083.97;;;1.56;100.00
13695;BME280;6919;52.344;14.518;2022-11-20T10:44:52;100083.06;;;1.68;100.00
13695;BME280;6919;52.344;14.518;2022-11-20T10:47:36;100074.56;;;1.88;100.00
13695;BME280;6919;52.344;14.518;2022-11-20T10:50:11;100075.63;;;1.85;100.00
13695;BME280;6919;52.344;14.518;2022-11-20T10:52:57;100075.13;;;2.04;100.00
13695;BME280;6919;52.344;14.518;2022-11-20T10:55:37;100077.78;;;1.68;100.00
13695;BME280;6919;52.344;14.518;2022-11-20T10:58:14;100073.28;;;1.57;100.00
13695;BME280;6919;52.344;14.518;2022-11-20T11:00:43;100067.91;;;1.59;100.00
13695;BME280;6919;52.344;14.518;2022-11-20T11:03:24;100066.13;;;1.47;100.00
13695;BME280;6919;52.344;14.518;2022-11-20T11:06:00;100066.91;;;1.72;100.00
13695;BME280;6919;52.344;14.518;2022-11-20T11:08:38;100063.31;;;1.37;100.00
13695;BME280;6919;52.344;14.518;2022-11-20T11:11:21;100064.72;;;1.54;100.00
13695;BME280;6919;52.344;14.518;2022-11-20T11:13:50;100062.91;;;1.67;100.00
13695;BME280;6919;52.344;14.518;2022-11-20T11:16:22;100064.72;;;1.66;100.00
13695;BME280;6919;52.344;14.518;2022-11-20T11:19:04;100062.03;;;1.79;100.00
13695;BME280;6919;52.344;14.518;2022-11-20T11:21:33;100067.38;;;1.54;100.00
13695;BME280;6919;52.344;14.518;2022-11-20T11:24:04;100063.09;;;1.40;100.00
13695;BME280;6919;52.344;14.518;2022-11-20T11:26:57;100069.38;;;1.27;100.00
13695;BME280;6919;52.344;14.518;2022-11-20T11:29:26;100067.91;;;1.23;100.00
13695;BME280;6919;52.344;14.518;2022-11-20T11:32:05;100068.50;;;1.26;100.00
13695;BME280;6919;52.344;14.518;2022-11-20T11:34:35;100060.75;;;1.48;100.00
13695;BME280;6919;52.344;14.518;2022-11-20T11:37:11;100055.16;;;1.40;100.00
13695;BME280;6919;52.344;14.518;2022-11-20T11:39:42;100061.47;;;1.50;100.00
13695;BME280;6919;52.344;14.518;2022-11-20T11:42:17;100052.91;;;1.47;100.00
13695;BME280;6919;52.344;14.518;2022-11-20T11:44:48;100051.56;;;1.41;100.00
13695;BME280;6919;52.344;14.518;2022-11-20T11:47:38;100052.13;;;1.34;100.00
13695;BME280;6919;52.344;14.518;2022-11-20T11:50:20;100053.44;;;1.52;100.00
13695;BME280;6919;52.344;14.518;2022-11-20T11:53:05;100049.69;;;1.67;100.00
13695;BME280;6919;52.344;14.518;2022-11-20T11:55:40;100045.97;;;1.69;100.00
13695;BME280;6919;52.344;14.518;2022-11-20T11:58:22;100048.06;;;1.77;100.00
13695;BME280;6919;52.344;14.518;2022-11-20T12:01:02;100046.34;;;1.65;100.00
13695;BME280;6919;52.344;14.518;2022-11-20T12:03:36;100041.38;;;1.60;100.00
13695;BME280;6919;52.344;14.518;2022-11-20T12:06:14;100047.00;;;1.56;100.00
13695;BME280;6919;52.344;14.518;2022-11-20T12:08:49;100041.59;;;1.81;100.00
13695;BME280;6919;52.344;14.518;2022-11-20T12:11:29;100041.63;;;1.45;100.00
13695;BME280;6919;52.344;14.518;2022-11-20T12:14:09;100036.84;;;1.50;100.00
13695;BME280;6919;52.344;14.518;2022-11-20T12:16:40;100031.06;;;1.45;100.00
13695;BME280;6919;52.344;14.518;2022-11-20T12:19:12;100033.41;;;1.49;100.00
13695;BME280;6919;52.344;14.518;2022-11-20T12:21:56;100021.81;;;1.63;100.00
13695;BME280;6919;52.344;14.518;2022-11-20T12:24:46;100023.38;;;1.89;100.00
13695;BME280;6919;52.344;14.518;2022-11-20T12:28:21;100023.25;;;1.90;100.00
13695;BME280;6919;52.344;14.518;2022-11-20T12:31:26;100030.69;;;2.20;100.00
13695;BME280;6919;52.344;14.518;2022-11-20T12:34:27;100028.47;;;2.03;100.00
13695;BME280;6919;52.344;14.518;2022-11-20T12:37:18;100025.94;;;2.01;100.00
13695;BME280;6919;52.344;14.518;2022-11-20T12:39:58;100028.22;;;1.95;100.00
13695;BME280;6919;52.344;14.518;2022-11-20T12:42:47;100024.41;;;2.10;100.00
13695;BME280;6919;52.344;14.518;2022-11-20T12:46:03;100021.19;;;2.17;100.00
13695;BME280;6919;52.344;14.518;2022-11-20T12:49:11;100024.06;;;2.14;100.00
13695;BME280;6919;52.344;14.518;2022-11-20T12:52:24;100012.59;;;2.03;100.00
13695;BME280;6919;52.344;14.518;2022-11-20T12:55:25;100012.38;;;2.06;100.00
13695;BME280;6919;52.344;14.518;2022-11-20T12:58:08;100005.56;;;2.14;100.00
13695;BME280;6919;52.344;14.518;2022-11-20T13:00:54;100015.88;;;2.06;100.00
13695;BME280;6919;52.344;14.518;2022-11-20T13:03:42;100013.59;;;2.13;100.00
13695;BME280;6919;52.344;14.518;2022-11-20T13:06:16;100015.84;;;1.95;100.00
13695;BME280;6919;52.344;14.518;2022-11-20T13:08:53;100004.78;;;2.01;100.00
13695;BME280;6919;52.344;14.518;2022-11-20T13:11:30;100007.09;;;2.06;100.00
13695;BME280;6919;52.344;14.518;2022-11-20T13:14:28;99995.69;;;1.82;100.00
13695;BME280;6919;52.344;14.518;2022-11-20T13:17:06;99994.00;;;2.04;100.00
13695;BME280;6919;52.344;14.518;2022-11-20T13:19:39;99994.53;;;2.20;100.00
13695;BME280;6919;52.344;14.518;2022-11-20T13:22:09;99993.44;;;2.23;100.00